Time;durP1;ratioP1;P1;durP2;ratioP2;P2;SDS_P1;SDS_P2;PMS_P1;PMS_P2;Temp;Humidity;BMP_temperature;BMP_pressure;BME280_temperature;BME280_humidity;BME280_pressure;Samples;Min_cycle;Max_cycle;Signal;HPM_P1;HPM_P2
2022/09/29 00:00:51;;;;;;;;;;;;;;;5.41;49.07;93974.69;5027821;28;20008;-78
2022/09/29 00:03:16;;;;;;;;;;;;;;;5.35;53.45;93978.88;5032281;28;19988;-78
2022/09/29 00:05:48;;;;;;;;;;;;;;;5.31;55.72;93982.91;5032824;28;19973;-78
2022/09/29 00:08:14;;;;;;;;;;;;;;;5.39;55.58;93980.16;5043214;28;19989;-78
2022/09/29 00:10:40;;;;;;;;;;;;;;;5.41;54.28;93982.59;5049368;28;19983;-78
2022/09/29 00:13:05;;;;;;;;;;;;;;;5.36;54.39;93983.16;5044640;28;19972;-78
2022/09/29 00:15:30;;;;;;;;;;;;;;;5.31;55.65;93985.53;5050387;28;19981;-78
2022/09/29 00:17:56;;;;;;;;;;;;;;;5.29;55.41;93984.88;5050537;28;20023;-78
2022/09/29 00:20:21;;;;;;;;;;;;;;;5.26;55.93;93983.44;5038833;28;20647;-78
2022/09/29 00:22:48;;;;;;;;;;;;;;;5.25;54.73;93986.25;5049171;28;20055;-78
2022/09/29 00:25:14;;;;;;;;;;;;;;;5.19;54.90;93986.00;5035673;28;19965;-78
2022/09/29 00:27:39;;;;;;;;;;;;;;;5.19;54.82;93987.81;5028651;28;20035;-78
2022/09/29 00:30:05;;;;;;;;;;;;;;;5.13;55.50;93984.09;5045901;28;20030;-78
2022/09/29 00:32:30;;;;;;;;;;;;;;;5.16;55.72;93981.09;5048243;28;20496;-78
2022/09/29 00:34:56;;;;;;;;;;;;;;;5.10;55.45;93984.47;5044754;28;19992;-78
2022/09/29 00:37:21;;;;;;;;;;;;;;;5.06;54.73;93975.28;5052602;28;20496;-78
2022/09/29 00:39:46;;;;;;;;;;;;;;;5.04;54.68;93980.69;5029304;28;20016;-78
2022/09/29 00:42:12;;;;;;;;;;;;;;;5.03;55.19;93980.91;5036853;28;19974;-78
2022/09/29 00:44:49;;;;;;;;;;;;;;;4.97;54.38;93977.19;5045389;28;19991;-78
2022/09/29 00:47:15;;;;;;;;;;;;;;;4.95;55.44;93984.44;5055041;28;20432;-78
2022/09/29 00:49:44;;;;;;;;;;;;;;;4.89;52.42;93980.72;5026822;28;20014;-78
2022/09/29 00:52:09;;;;;;;;;;;;;;;4.88;55.05;93975.63;5020109;28;19988;-78
2022/09/29 00:54:37;;;;;;;;;;;;;;;4.85;53.19;93982.09;5054572;28;19968;-78
2022/09/29 00:57:02;;;;;;;;;;;;;;;4.82;54.87;93983.28;5048243;28;19997;-78
2022/09/29 00:59:31;;;;;;;;;;;;;;;4.78;55.35;93979.38;5040721;28;20027;-78
2022/09/29 01:01:57;;;;;;;;;;;;;;;4.75;54.21;93976.25;5029277;28;20031;-78
2022/09/29 01:04:22;;;;;;;;;;;;;;;4.72;54.63;93974.81;5030536;28;19985;-78
2022/09/29 01:06:50;;;;;;;;;;;;;;;4.65;55.65;93979.16;5051786;28;19973;-78
2022/09/29 01:09:16;;;;;;;;;;;;;;;4.66;55.65;93978.19;5028034;28;20981;-78
2022/09/29 01:11:42;;;;;;;;;;;;;;;4.59;56.41;93983.34;5029581;28;19989;-78
2022/09/29 01:14:07;;;;;;;;;;;;;;;4.54;55.42;93983.91;5056256;28;20665;-78
2022/09/29 01:16:33;;;;;;;;;;;;;;;4.52;56.06;93983.25;5032570;28;20001;-78
2022/09/29 01:18:59;;;;;;;;;;;;;;;4.49;56.45;93980.16;5045840;28;20566;-78
2022/09/29 01:21:24;;;;;;;;;;;;;;;4.46;56.52;93976.09;5017414;28;19989;-78
2022/09/29 01:24:08;;;;;;;;;;;;;;;4.41;55.96;93979.25;5030049;28;20090;-78
2022/09/29 01:26:52;;;;;;;;;;;;;;;4.36;55.70;93980.78;5051213;28;19976;-78
2022/09/29 01:29:21;;;;;;;;;;;;;;;4.30;55.07;93979.69;5032962;28;20068;-78
2022/09/29 01:31:56;;;;;;;;;;;;;;;4.24;53.54;93983.03;5038662;28;20026;-78
2022/09/29 01:34:24;;;;;;;;;;;;;;;4.18;54.19;93982.75;5028716;28;19972;-78
2022/09/29 01:37:03;;;;;;;;;;;;;;;4.13;55.98;93979.00;5034270;28;19997;-78
2022/09/29 01:39:29;;;;;;;;;;;;;;;4.10;56.38;93982.00;5033590;28;20519;-78
2022/09/29 01:41:54;;;;;;;;;;;;;;;4.08;55.49;93987.44;5035190;28;20493;-78
2022/09/29 01:44:40;;;;;;;;;;;;;;;4.01;55.07;93989.16;5054814;28;19993;-78
2022/09/29 01:47:05;;;;;;;;;;;;;;;3.96;56.11;93983.59;5036374;28;20080;-78
2022/09/29 01:49:31;;;;;;;;;;;;;;;3.93;57.37;93982.97;5041823;28;20083;-78
2022/09/29 01:52:01;;;;;;;;;;;;;;;3.92;55.29;93981.31;5035755;28;19988;-78
2022/09/29 01:54:47;;;;;;;;;;;;;;;3.86;55.77;93983.81;5037259;28;19969;-78
2022/09/29 01:57:32;;;;;;;;;;;;;;;3.81;57.09;93979.91;5054174;28;19961;-78
2022/09/29 02:00:07;;;;;;;;;;;;;;;3.82;53.99;93978.09;5047664;28;19997;-78
2022/09/29 02:02:35;;;;;;;;;;;;;;;3.72;54.51;93983.59;5016606;28;20419;-78
2022/09/29 02:05:01;;;;;;;;;;;;;;;3.67;56.35;93981.50;5032483;28;19969;-78
2022/09/29 02:07:36;;;;;;;;;;;;;;;3.64;57.01;93981.03;5039947;28;19988;-78
2022/09/29 02:10:06;;;;;;;;;;;;;;;3.63;57.26;93977.56;5025157;28;20395;-78
2022/09/29 02:12:31;;;;;;;;;;;;;;;3.62;56.89;93981.19;5032988;28;20000;-78
2022/09/29 02:14:56;;;;;;;;;;;;;;;3.59;55.83;93975.44;5039980;28;20046;-78
2022/09/29 02:17:24;;;;;;;;;;;;;;;3.46;52.39;93978.66;5033335;28;20018;-78
2022/09/29 02:19:50;;;;;;;;;;;;;;;3.38;55.75;93984.75;5032467;28;20000;-78
2022/09/29 02:22:15;;;;;;;;;;;;;;;3.39;57.45;93976.69;5022765;28;19972;-78
2022/09/29 02:24:40;;;;;;;;;;;;;;;3.43;58.00;93987.69;5043240;28;19984;-78
2022/09/29 02:27:05;;;;;;;;;;;;;;;3.42;55.53;93983.44;5027794;28;19992;-78
2022/09/29 02:29:31;;;;;;;;;;;;;;;3.29;51.72;93982.19;5048769;28;19972;-78
2022/09/29 02:32:00;;;;;;;;;;;;;;;3.19;53.96;93986.81;5042567;28;20661;-78
2022/09/29 02:34:25;;;;;;;;;;;;;;;3.20;56.97;93977.13;5051963;28;20020;-78
2022/09/29 02:37:05;;;;;;;;;;;;;;;3.23;57.84;93979.44;5037468;28;20067;-78
2022/09/29 02:39:46;;;;;;;;;;;;;;;3.25;55.92;93975.63;5059302;28;20391;-78
2022/09/29 02:42:22;;;;;;;;;;;;;;;3.22;57.03;93990.91;5048706;28;20056;-79
2022/09/29 02:44:55;;;;;;;;;;;;;;;3.21;57.29;93984.03;5020368;28;19985;-79
2022/09/29 02:47:20;;;;;;;;;;;;;;;3.21;57.29;93984.03;5044455;28;19974;-78
2022/09/29 02:50:02;;;;;;;;;;;;;;;3.25;57.83;93985.31;5059091;28;19953;-78
2022/09/29 02:52:27;;;;;;;;;;;;;;;3.26;58.43;93987.78;5030472;28;20002;-78
2022/09/29 02:55:01;;;;;;;;;;;;;;;3.29;59.27;93991.88;5053996;28;20030;-78
2022/09/29 02:57:35;;;;;;;;;;;;;;;3.31;58.01;93995.16;5052420;28;19954;-79
2022/09/29 03:00:09;;;;;;;;;;;;;;;3.28;57.51;93984.97;5038208;28;20486;-79
2022/09/29 03:02:34;;;;;;;;;;;;;;;3.12;51.21;93986.69;5039771;28;19959;-79
2022/09/29 03:05:00;;;;;;;;;;;;;;;3.06;55.08;93992.63;5039516;28;20009;-78
2022/09/29 03:07:25;;;;;;;;;;;;;;;3.00;54.08;93996.75;5053216;28;20033;-79
2022/09/29 03:09:50;;;;;;;;;;;;;;;3.09;56.34;93989.66;5062485;28;19940;-79
2022/09/29 03:12:17;;;;;;;;;;;;;;;3.12;56.97;93985.88;5042451;28;19963;-79
2022/09/29 03:14:42;;;;;;;;;;;;;;;3.19;58.59;93991.28;5038988;28;20276;-78
2022/09/29 03:17:07;;;;;;;;;;;;;;;3.25;58.46;93993.22;5056932;28;19963;-78
2022/09/29 03:19:33;;;;;;;;;;;;;;;3.26;58.03;93986.94;5055804;28;19981;-79
2022/09/29 03:21:58;;;;;;;;;;;;;;;3.32;58.04;93986.28;5066850;28;19980;-79
2022/09/29 03:24:23;;;;;;;;;;;;;;;3.36;59.43;93990.19;5069263;28;20013;-79
2022/09/29 03:26:48;;;;;;;;;;;;;;;3.36;58.22;93986.72;5060236;28;20558;-79
2022/09/29 03:29:14;;;;;;;;;;;;;;;3.38;57.78;93987.41;5061911;28;20002;-79
2022/09/29 03:31:39;;;;;;;;;;;;;;;3.39;57.09;93986.41;5049390;28;19960;-79
2022/09/29 03:34:04;;;;;;;;;;;;;;;3.34;57.29;93991.38;5056482;28;19941;-78
2022/09/29 03:36:30;;;;;;;;;;;;;;;3.35;57.97;93985.09;5044267;28;19959;-78
2022/09/29 03:38:55;;;;;;;;;;;;;;;3.36;51.79;93987.56;5061019;28;20013;-79
2022/09/29 03:41:20;;;;;;;;;;;;;;;3.27;53.52;93986.78;5036036;28;20329;-78
2022/09/29 03:43:45;;;;;;;;;;;;;;;3.24;53.15;93995.03;5063785;28;19986;-79
2022/09/29 03:46:11;;;;;;;;;;;;;;;3.27;55.71;93991.25;5060232;28;19994;-79
2022/09/29 03:48:36;;;;;;;;;;;;;;;3.30;56.93;93989.06;5058907;28;19935;-79
2022/09/29 03:51:02;;;;;;;;;;;;;;;3.38;57.78;93988.22;5062561;28;19957;-79
2022/09/29 03:53:27;;;;;;;;;;;;;;;3.41;58.03;93992.31;5038584;28;20206;-79
2022/09/29 03:55:53;;;;;;;;;;;;;;;3.46;59.48;93994.44;5053427;28;19975;-79
2022/09/29 03:58:18;;;;;;;;;;;;;;;3.38;53.66;93993.50;5044755;28;20033;-79
2022/09/29 04:00:43;;;;;;;;;;;;;;;3.35;54.82;93999.09;5053977;28;19924;-79
2022/09/29 04:03:09;;;;;;;;;;;;;;;3.35;57.00;94003.53;5059909;28;19933;-78
2022/09/29 04:05:37;;;;;;;;;;;;;;;3.39;57.17;93997.75;5061090;28;19921;-78
2022/09/29 04:08:02;;;;;;;;;;;;;;;3.38;56.23;93998.75;5055797;28;19958;-78
2022/09/29 04:10:27;;;;;;;;;;;;;;;3.42;57.69;94002.66;5043704;28;19921;-78
2022/09/29 04:12:53;;;;;;;;;;;;;;;3.49;58.26;94007.25;5036768;28;19921;-78
2022/09/29 04:15:18;;;;;;;;;;;;;;;3.53;57.32;94009.38;5056310;28;20034;-78
2022/09/29 04:17:43;;;;;;;;;;;;;;;3.60;58.19;94011.31;5054949;28;19920;-79
2022/09/29 04:20:08;;;;;;;;;;;;;;;3.50;52.77;94003.66;5055777;28;19956;-79
2022/09/29 04:22:34;;;;;;;;;;;;;;;3.50;56.43;94012.34;5063359;28;20431;-79
2022/09/29 04:24:59;;;;;;;;;;;;;;;3.61;58.21;94011.13;5058208;28;19923;-79
2022/09/29 04:27:24;;;;;;;;;;;;;;;3.74;58.35;94004.50;5056097;28;20006;-79
2022/09/29 04:29:49;;;;;;;;;;;;;;;3.73;54.78;94006.28;5050805;28;19975;-79
2022/09/29 04:32:15;;;;;;;;;;;;;;;3.78;56.76;94011.03;5060672;28;19925;-79
2022/09/29 04:34:40;;;;;;;;;;;;;;;3.69;52.40;94012.91;5050429;28;20404;-79
2022/09/29 04:37:10;;;;;;;;;;;;;;;3.71;54.89;94008.28;5054675;28;19935;-79
2022/09/29 04:39:35;;;;;;;;;;;;;;;3.72;55.18;94011.72;5032780;28;19925;-79
2022/09/29 04:42:00;;;;;;;;;;;;;;;3.71;54.69;94012.72;5061094;28;19923;-79
2022/09/29 04:44:26;;;;;;;;;;;;;;;3.70;53.06;94011.09;5057834;28;19925;-79
2022/09/29 04:46:51;;;;;;;;;;;;;;;3.69;56.90;94020.81;5057677;28;19920;-79
2022/09/29 04:49:17;;;;;;;;;;;;;;;3.72;55.64;94017.81;5053459;28;20125;-79
2022/09/29 04:51:42;;;;;;;;;;;;;;;3.80;55.94;94017.78;5052754;28;20127;-79
2022/09/29 04:54:07;;;;;;;;;;;;;;;3.88;58.16;94022.16;5057248;28;20007;-79
2022/09/29 04:56:32;;;;;;;;;;;;;;;3.97;56.40;94014.19;5060294;28;20377;-79
2022/09/29 04:58:58;;;;;;;;;;;;;;;4.01;57.58;94020.75;5055413;28;19924;-79
2022/09/29 05:01:23;;;;;;;;;;;;;;;4.06;57.65;94016.56;5058801;28;20121;-79
2022/09/29 05:03:48;;;;;;;;;;;;;;;4.10;56.66;94018.88;5042699;28;20039;-80
2022/09/29 05:06:13;;;;;;;;;;;;;;;4.16;56.27;94023.44;5046177;28;19921;-79
2022/09/29 05:08:39;;;;;;;;;;;;;;;4.18;57.02;94024.91;5053839;28;19931;-79
2022/09/29 05:11:05;;;;;;;;;;;;;;;4.15;52.97;94027.06;5054066;28;19921;-79
2022/09/29 05:13:30;;;;;;;;;;;;;;;4.09;52.51;94036.50;5056106;28;19928;-79
2022/09/29 05:15:56;;;;;;;;;;;;;;;4.06;51.14;94029.75;5061434;28;20376;-79
2022/09/29 05:18:21;;;;;;;;;;;;;;;4.06;54.91;94034.22;5051283;28;19966;-79
2022/09/29 05:20:47;;;;;;;;;;;;;;;4.10;52.59;94032.88;5054671;28;19932;-79
2022/09/29 05:23:12;;;;;;;;;;;;;;;4.16;53.96;94033.97;5059340;28;19938;-79
2022/09/29 05:25:37;;;;;;;;;;;;;;;4.21;55.96;94033.44;5061577;28;19917;-79
2022/09/29 05:28:02;;;;;;;;;;;;;;;4.18;53.65;94040.69;5062082;28;19920;-79
2022/09/29 05:30:28;;;;;;;;;;;;;;;4.21;56.10;94039.53;5063681;28;19974;-79
2022/09/29 05:32:53;;;;;;;;;;;;;;;4.28;54.98;94042.25;5060099;28;19923;-79
2022/09/29 05:35:18;;;;;;;;;;;;;;;4.31;55.70;94042.75;5063581;28;19978;-79
2022/09/29 05:37:44;;;;;;;;;;;;;;;4.31;54.57;94037.47;5067731;28;20448;-79
2022/09/29 05:40:09;;;;;;;;;;;;;;;4.32;56.65;94038.31;5071891;28;19959;-79
2022/09/29 05:42:35;;;;;;;;;;;;;;;4.34;55.74;94046.84;5063367;28;19920;-79
2022/09/29 05:45:00;;;;;;;;;;;;;;;4.39;56.74;94044.47;5065927;28;19920;-79
2022/09/29 05:47:25;;;;;;;;;;;;;;;4.44;57.04;94049.22;5059796;28;19921;-79
2022/09/29 05:49:50;;;;;;;;;;;;;;;4.45;57.44;94042.94;5048741;28;19917;-79
2022/09/29 05:52:16;;;;;;;;;;;;;;;4.51;57.74;94052.78;5067194;28;19936;-79
2022/09/29 05:54:41;;;;;;;;;;;;;;;4.56;57.33;94049.63;5067087;28;20475;-79
2022/09/29 05:57:06;;;;;;;;;;;;;;;4.61;57.09;94052.53;5048833;28;19929;-79
2022/09/29 05:59:31;;;;;;;;;;;;;;;4.65;56.54;94045.06;5069929;28;19908;-79
2022/09/29 06:01:57;;;;;;;;;;;;;;;4.68;56.86;94053.47;5058401;28;19920;-69
2022/09/29 06:04:22;;;;;;;;;;;;;;;4.71;57.49;94047.00;5054500;28;20522;-70
2022/09/29 06:06:47;;;;;;;;;;;;;;;4.76;57.08;94057.03;5045833;28;19974;-70
2022/09/29 06:09:13;;;;;;;;;;;;;;;4.76;56.22;94049.09;5049359;28;19920;-69
2022/09/29 06:11:38;;;;;;;;;;;;;;;4.77;56.55;94048.94;5054432;28;20164;-69
2022/09/29 06:14:03;;;;;;;;;;;;;;;4.82;56.49;94049.19;5054542;28;19928;-70
2022/09/29 06:16:29;;;;;;;;;;;;;;;4.84;56.26;94052.47;5052757;28;19948;-70
2022/09/29 06:18:55;;;;;;;;;;;;;;;4.89;56.75;94057.19;5052402;28;19920;-70
2022/09/29 06:21:22;;;;;;;;;;;;;;;4.93;56.57;94065.59;5050886;28;20042;-71
2022/09/29 06:23:47;;;;;;;;;;;;;;;4.93;56.52;94058.47;5055405;28;19989;-69
2022/09/29 06:26:13;;;;;;;;;;;;;;;4.96;56.33;94063.41;5049529;28;20401;-70
2022/09/29 06:28:39;;;;;;;;;;;;;;;5.00;55.75;94057.75;5057272;28;20437;-70
2022/09/29 06:31:05;;;;;;;;;;;;;;;5.05;56.57;94065.94;5055139;28;19921;-71
2022/09/29 06:33:30;;;;;;;;;;;;;;;5.12;56.52;94064.25;5059268;28;20621;-71
2022/09/29 06:38:40;;;;;;;;;;;;;;;5.35;56.26;94055.41;5049223;28;19965;-71
2022/09/29 06:41:06;;;;;;;;;;;;;;;5.43;56.23;94065.88;5034711;28;20337;-72
2022/09/29 06:43:31;;;;;;;;;;;;;;;5.42;56.74;94056.31;5049718;28;19928;-70
2022/09/29 06:45:56;;;;;;;;;;;;;;;5.55;56.58;94062.75;5050668;28;20439;-70
2022/09/29 06:48:21;;;;;;;;;;;;;;;5.69;56.48;94058.47;5051595;28;19925;-71
2022/09/29 06:50:47;;;;;;;;;;;;;;;5.84;56.46;94061.06;5053584;28;20154;-69
2022/09/29 06:53:13;;;;;;;;;;;;;;;5.98;55.49;94067.28;5050671;28;19917;-68
2022/09/29 06:55:38;;;;;;;;;;;;;;;6.08;55.29;94057.25;5052325;28;19925;-68
2022/09/29 06:58:03;;;;;;;;;;;;;;;6.20;54.67;94062.03;5051987;28;20589;-68
2022/09/29 07:00:29;;;;;;;;;;;;;;;6.31;54.60;94066.00;5052371;28;19954;-70
2022/09/29 07:02:54;;;;;;;;;;;;;;;6.38;54.30;94066.88;5052357;28;19921;-69
2022/09/29 07:05:19;;;;;;;;;;;;;;;6.44;54.30;94073.22;5049291;28;19960;-69
2022/09/29 07:07:46;;;;;;;;;;;;;;;6.56;53.46;94070.94;5049763;28;19961;-69
2022/09/29 07:10:12;;;;;;;;;;;;;;;6.68;53.65;94073.84;5053256;28;20083;-71
2022/09/29 07:12:37;;;;;;;;;;;;;;;6.75;53.05;94069.44;5050784;28;20505;-69
2022/09/29 07:15:02;;;;;;;;;;;;;;;6.79;52.64;94078.63;5051896;28;20224;-70
2022/09/29 07:17:28;;;;;;;;;;;;;;;6.90;52.57;94077.28;5053819;28;20417;-70
2022/09/29 07:19:54;;;;;;;;;;;;;;;6.99;52.26;94073.47;5049856;28;20000;-69
2022/09/29 07:22:20;;;;;;;;;;;;;;;7.10;51.90;94076.59;5052534;28;19981;-71
2022/09/29 07:24:46;;;;;;;;;;;;;;;7.24;51.74;94080.97;5049015;28;20058;-69
2022/09/29 07:27:12;;;;;;;;;;;;;;;7.38;50.88;94071.25;5052110;28;19989;-71
2022/09/29 07:29:37;;;;;;;;;;;;;;;7.52;50.87;94076.63;5053799;28;19969;-71
2022/09/29 07:32:02;;;;;;;;;;;;;;;7.70;50.60;94076.09;5054820;28;19989;-75
2022/09/29 07:34:27;;;;;;;;;;;;;;;7.84;49.57;94084.94;5051958;28;19973;-72
2022/09/29 07:36:53;;;;;;;;;;;;;;;7.96;49.52;94079.88;5056934;28;19989;-72
2022/09/29 07:39:18;;;;;;;;;;;;;;;8.10;48.98;94090.53;5050060;28;20000;-72
2022/09/29 07:41:43;;;;;;;;;;;;;;;8.29;48.50;94092.41;5049585;28;19995;-70
2022/09/29 07:44:09;;;;;;;;;;;;;;;8.48;48.30;94089.16;5051758;28;20190;-73
2022/09/29 07:46:34;;;;;;;;;;;;;;;8.56;47.96;94088.97;5056125;28;19973;-73
2022/09/29 07:48:59;;;;;;;;;;;;;;;8.64;47.09;94091.41;5053838;28;19993;-73
2022/09/29 07:51:24;;;;;;;;;;;;;;;8.84;47.31;94095.91;5050270;28;19995;-72
2022/09/29 07:53:50;;;;;;;;;;;;;;;8.97;47.13;94097.78;5050968;28;20110;-72
2022/09/29 07:56:18;;;;;;;;;;;;;;;9.10;46.41;94096.13;5055038;28;20000;-73
2022/09/29 07:58:44;;;;;;;;;;;;;;;9.24;46.02;94089.78;5052939;28;20630;-72
2022/09/29 08:01:11;;;;;;;;;;;;;;;9.21;45.19;94092.84;5030012;28;19996;-71
2022/09/29 08:03:39;;;;;;;;;;;;;;;9.20;45.58;94104.50;5048125;28;19993;-71
2022/09/29 08:06:05;;;;;;;;;;;;;;;9.22;44.95;94093.66;5047296;28;20189;-72
2022/09/29 08:08:30;;;;;;;;;;;;;;;9.25;46.45;94099.38;5032697;28;19985;-72
2022/09/29 08:11:12;;;;;;;;;;;;;;;8.89;46.66;94105.91;5050788;28;20014;-74
2022/09/29 08:13:37;;;;;;;;;;;;;;;9.12;47.72;94104.72;5033101;28;20069;-72
2022/09/29 08:16:04;;;;;;;;;;;;;;;9.06;46.56;94098.38;5025038;28;20083;-72
2022/09/29 08:18:30;;;;;;;;;;;;;;;9.40;44.15;94106.31;5027897;28;19992;-72
2022/09/29 08:20:55;;;;;;;;;;;;;;;9.42;43.62;94106.94;5052343;28;20004;-72
2022/09/29 08:23:20;;;;;;;;;;;;;;;9.29;43.78;94111.22;5049945;28;19985;-72
2022/09/29 08:25:46;;;;;;;;;;;;;;;9.35;45.83;94114.09;5032876;28;19965;-72
2022/09/29 08:28:11;;;;;;;;;;;;;;;9.68;45.28;94121.16;5045924;28;20019;-72
2022/09/29 08:30:37;;;;;;;;;;;;;;;9.95;44.54;94121.06;5049912;28;20263;-72
2022/09/29 08:33:02;;;;;;;;;;;;;;;10.32;43.88;94117.84;5048529;28;19917;-72
2022/09/29 08:35:28;;;;;;;;;;;;;;;10.45;42.29;94120.44;5034604;28;20695;-72
2022/09/29 08:37:54;;;;;;;;;;;;;;;10.57;43.22;94123.22;5053874;28;20504;-72
2022/09/29 08:40:19;;;;;;;;;;;;;;;10.86;41.36;94131.66;5049715;28;20001;-72
2022/09/29 08:42:50;;;;;;;;;;;;;;;10.95;42.33;94124.19;5034517;28;19971;-73
2022/09/29 08:45:36;;;;;;;;;;;;;;;11.07;41.42;94134.94;5030761;28;20437;-73
2022/09/29 08:48:12;;;;;;;;;;;;;;;11.04;41.09;94132.72;5051841;28;20043;-72
2022/09/29 08:50:41;;;;;;;;;;;;;;;11.43;41.57;94131.81;5035531;28;19972;-72
2022/09/29 08:53:08;;;;;;;;;;;;;;;11.42;41.17;94141.63;5052680;28;19975;-73
2022/09/29 08:55:45;;;;;;;;;;;;;;;11.43;41.00;94137.97;5047338;28;20460;-73
2022/09/29 08:58:11;;;;;;;;;;;;;;;11.50;41.09;94138.69;5031223;28;20422;-73
2022/09/29 09:00:49;;;;;;;;;;;;;;;11.83;40.37;94138.59;5033371;28;19997;-73
2022/09/29 09:03:20;;;;;;;;;;;;;;;12.03;39.79;94146.34;5056979;28;20548;-72
2022/09/29 09:06:04;;;;;;;;;;;;;;;11.22;40.31;94139.19;5046429;28;19976;-73
2022/09/29 09:08:29;;;;;;;;;;;;;;;11.64;39.44;94138.56;5047483;28;20000;-73
2022/09/29 09:11:05;;;;;;;;;;;;;;;12.13;37.14;94129.84;5049480;28;19993;-73
2022/09/29 09:13:39;;;;;;;;;;;;;;;12.17;36.70;94141.69;5031635;28;20066;-72
2022/09/29 09:16:14;;;;;;;;;;;;;;;12.08;36.09;94141.19;5055303;28;20431;-72
2022/09/29 09:18:55;;;;;;;;;;;;;;;11.99;36.92;94140.66;5050798;28;20441;-72
2022/09/29 09:21:27;;;;;;;;;;;;;;;11.57;36.83;94143.97;5030272;28;20091;-71
2022/09/29 09:23:53;;;;;;;;;;;;;;;10.80;39.15;94144.97;5031320;28;20505;-72
2022/09/29 09:26:18;;;;;;;;;;;;;;;10.86;38.71;94152.13;5026784;28;20084;-72
2022/09/29 09:28:57;;;;;;;;;;;;;;;11.79;36.07;94153.41;5025969;28;19985;-72
2022/09/29 09:31:25;;;;;;;;;;;;;;;11.95;38.02;94157.31;5026563;28;19989;-72
2022/09/29 09:33:58;;;;;;;;;;;;;;;12.58;38.23;94152.66;5032331;28;19965;-72
2022/09/29 09:36:34;;;;;;;;;;;;;;;12.41;35.42;94157.81;5029625;28;19990;-72
2022/09/29 09:39:05;;;;;;;;;;;;;;;12.56;37.24;94145.91;5033271;28;20360;-71
2022/09/29 09:41:31;;;;;;;;;;;;;;;12.96;34.12;94152.53;5024648;28;20368;-72
2022/09/29 09:43:57;;;;;;;;;;;;;;;12.41;35.76;94150.63;5035982;28;19992;-72
2022/09/29 09:46:43;;;;;;;;;;;;;;;10.59;39.05;94161.09;5036083;28;19973;-72
2022/09/29 09:49:27;;;;;;;;;;;;;;;11.80;38.57;94152.34;5034377;28;20446;-72
2022/09/29 09:51:53;;;;;;;;;;;;;;;13.04;36.29;94150.38;5035175;28;20186;-72
2022/09/29 09:54:22;;;;;;;;;;;;;;;11.93;37.57;94151.41;5031457;28;20399;-73
2022/09/29 09:56:51;;;;;;;;;;;;;;;13.21;36.67;94154.22;5035141;28;20000;-70
2022/09/29 09:59:30;;;;;;;;;;;;;;;13.91;35.72;94149.94;5032428;28;20100;-72
2022/09/29 10:01:56;;;;;;;;;;;;;;;14.21;32.51;94165.00;5030192;28;20052;-72
2022/09/29 10:04:24;;;;;;;;;;;;;;;12.55;35.57;94161.13;5029467;28;20508;-70
2022/09/29 10:06:50;;;;;;;;;;;;;;;14.00;33.65;94157.63;5030615;28;19977;-71
2022/09/29 10:09:15;;;;;;;;;;;;;;;14.44;33.22;94157.13;5034272;28;20425;-71
2022/09/29 10:11:41;;;;;;;;;;;;;;;15.11;31.03;94162.91;5030237;28;20064;-70
2022/09/29 10:14:25;;;;;;;;;;;;;;;13.16;32.18;94169.09;5031870;28;20042;-78
2022/09/29 10:16:55;;;;;;;;;;;;;;;12.87;34.65;94168.06;5037420;28;20075;-83
2022/09/29 10:19:22;;;;;;;;;;;;;;;13.42;33.89;94161.69;5037433;28;19997;-82
2022/09/29 10:21:48;;;;;;;;;;;;;;;14.53;31.57;94160.25;5031175;28;20561;-82
2022/09/29 10:24:20;;;;;;;;;;;;;;;15.36;28.61;94159.84;5038275;28;19997;-82
2022/09/29 10:26:45;;;;;;;;;;;;;;;15.58;28.86;94158.31;5043822;28;19974;-82
2022/09/29 10:29:34;;;;;;;;;;;;;;;15.51;28.84;94158.47;5035670;28;20437;-82
2022/09/29 10:32:14;;;;;;;;;;;;;;;14.94;29.86;94169.06;5025667;28;19997;-83
2022/09/29 10:34:40;;;;;;;;;;;;;;;15.88;29.01;94167.88;5045282;28;20018;-82
2022/09/29 10:37:24;;;;;;;;;;;;;;;15.51;29.63;94171.03;5036244;28;20029;-82
2022/09/29 10:39:50;;;;;;;;;;;;;;;15.46;29.85;94169.91;5054724;28;19989;-82
2022/09/29 10:42:18;;;;;;;;;;;;;;;14.97;30.07;94173.13;5050207;28;19966;-82
2022/09/29 10:44:44;;;;;;;;;;;;;;;15.71;31.09;94166.00;5052797;28;19976;-82
2022/09/29 10:47:15;;;;;;;;;;;;;;;15.73;31.67;94171.94;5055701;28;20221;-82
2022/09/29 10:49:40;;;;;;;;;;;;;;;16.21;27.63;94174.19;5038086;28;19966;-82
2022/09/29 10:52:12;;;;;;;;;;;;;;;16.83;27.92;94168.72;5054748;28;20375;-82
2022/09/29 10:54:38;;;;;;;;;;;;;;;16.63;29.21;94172.81;5047104;28;19969;-82
2022/09/29 10:57:11;;;;;;;;;;;;;;;17.03;25.32;94183.41;5043669;28;20119;-83
2022/09/29 10:59:47;;;;;;;;;;;;;;;17.21;25.16;94174.22;5040055;28;20347;-81
2022/09/29 11:02:16;;;;;;;;;;;;;;;16.91;27.51;94172.84;5056160;28;19965;-81
2022/09/29 11:04:43;;;;;;;;;;;;;;;15.93;29.58;94178.66;5054142;28;19989;-81
2022/09/29 11:07:10;;;;;;;;;;;;;;;16.57;27.72;94178.38;5049310;28;19993;-81
2022/09/29 11:09:39;;;;;;;;;;;;;;;15.38;28.91;94181.03;5050801;28;19972;-81
2022/09/29 11:12:20;;;;;;;;;;;;;;;15.68;29.06;94177.25;5052735;28;20014;-81
2022/09/29 11:14:46;;;;;;;;;;;;;;;15.64;29.37;94186.84;5061363;28;20020;-81
2022/09/29 11:17:24;;;;;;;;;;;;;;;15.61;29.25;94193.50;5048727;28;19981;-82
2022/09/29 11:19:50;;;;;;;;;;;;;;;15.27;30.06;94188.13;5065397;28;20423;-82
2022/09/29 11:22:18;;;;;;;;;;;;;;;14.64;31.16;94198.75;5071845;28;20002;-82
2022/09/29 11:24:43;;;;;;;;;;;;;;;14.42;31.39;94200.22;5062665;28;20282;-82
2022/09/29 11:27:12;;;;;;;;;;;;;;;14.55;31.11;94201.81;5060579;28;20004;-79
2022/09/29 11:29:56;;;;;;;;;;;;;;;13.98;32.43;94200.66;5032059;28;19969;-79
2022/09/29 11:32:41;;;;;;;;;;;;;;;14.26;30.28;94198.28;5052179;28;20038;-80
2022/09/29 11:35:25;;;;;;;;;;;;;;;13.35;32.38;94192.22;5018238;28;20003;-79
2022/09/29 11:37:52;;;;;;;;;;;;;;;13.07;32.90;94201.72;5049673;28;19968;-73
2022/09/29 11:40:24;;;;;;;;;;;;;;;12.55;34.23;94206.50;5054700;28;20489;-79
2022/09/29 11:43:08;;;;;;;;;;;;;;;12.52;34.51;94209.63;5065865;28;19969;-78
2022/09/29 11:45:56;;;;;;;;;;;;;;;12.37;35.42;94208.16;5057679;28;19967;-79
2022/09/29 11:48:21;;;;;;;;;;;;;;;11.48;36.28;94209.22;5023276;28;20415;-79
2022/09/29 11:50:47;;;;;;;;;;;;;;;10.86;36.48;94214.16;5055379;28;19973;-79
2022/09/29 11:53:22;;;;;;;;;;;;;;;10.33;38.45;94215.22;5057997;28;19965;-79
2022/09/29 11:55:52;;;;;;;;;;;;;;;10.09;37.24;94226.38;5048479;28;19984;-78
2022/09/29 11:58:29;;;;;;;;;;;;;;;10.07;36.77;94225.75;5056170;28;20282;-78
2022/09/29 12:01:04;;;;;;;;;;;;;;;10.32;36.36;94224.25;5055834;28;19992;-78
2022/09/29 12:03:32;;;;;;;;;;;;;;;10.22;36.42;94219.38;5043624;28;20011;-77
2022/09/29 12:06:07;;;;;;;;;;;;;;;10.16;37.10;94225.56;5058604;28;20015;-78
2022/09/29 12:08:41;;;;;;;;;;;;;;;10.21;36.40;94223.06;5035164;28;19987;-77
2022/09/29 12:11:06;;;;;;;;;;;;;;;10.20;37.89;94226.75;5035579;28;20020;-79
2022/09/29 12:13:51;;;;;;;;;;;;;;;10.51;39.86;94225.22;5044149;28;19961;-78
2022/09/29 12:16:17;;;;;;;;;;;;;;;10.46;39.64;94227.66;5039020;28;19989;-79
2022/09/29 12:18:48;;;;;;;;;;;;;;;10.92;37.98;94230.31;5046821;28;20046;-79
2022/09/29 12:21:14;;;;;;;;;;;;;;;11.21;37.94;94228.91;5062025;28;19993;-78
2022/09/29 12:23:39;;;;;;;;;;;;;;;10.62;39.30;94237.81;5033442;28;19989;-78
2022/09/29 12:26:06;;;;;;;;;;;;;;;10.83;40.01;94241.22;5033555;28;19973;-78
2022/09/29 12:28:36;;;;;;;;;;;;;;;11.26;40.85;94236.28;5054872;28;20047;-78
2022/09/29 12:31:03;;;;;;;;;;;;;;;11.48;39.54;94233.22;5043355;28;19997;-78
2022/09/29 12:33:39;;;;;;;;;;;;;;;11.62;37.35;94232.06;5042644;28;20376;-78
2022/09/29 12:39:24;;;;;;;;;;;;;;;9.96;41.34;94253.78;5058238;28;19996;-78
2022/09/29 12:42:20;;;;;;;;;;;;;;;10.89;40.14;94242.22;5030753;28;20083;-78
2022/09/29 12:44:47;;;;;;;;;;;;;;;11.10;40.71;94245.59;5050475;28;19996;-81
2022/09/29 12:47:22;;;;;;;;;;;;;;;11.30;39.61;94233.97;5047969;28;20067;-80
2022/09/29 12:49:54;;;;;;;;;;;;;;;11.55;37.93;94246.47;5031308;28;20040;-81
2022/09/29 12:52:21;;;;;;;;;;;;;;;11.73;39.15;94243.06;5047857;28;20536;-80
2022/09/29 12:54:54;;;;;;;;;;;;;;;11.93;37.95;94244.72;5039136;28;20067;-80
2022/09/29 12:57:20;;;;;;;;;;;;;;;11.85;38.63;94249.31;5046467;28;20356;-81
2022/09/29 12:59:56;;;;;;;;;;;;;;;12.06;39.30;94247.28;5036111;28;20000;-80
2022/09/29 13:02:35;;;;;;;;;;;;;;;12.08;36.56;94255.91;5063427;28;19982;-80
2022/09/29 13:05:04;;;;;;;;;;;;;;;12.20;39.06;94252.50;5040004;28;20013;-81